Arnesen, Minnesota
Current Conditions -  °F | °C
As of 7:53 AM on Thursday 30 Oct 2014 (Local Time) from KRRT Reporting Station
Overcast Overcast  
Wind Chill: 27°   Ceiling: 3500
Heat Index: 34°   Visibility: 10mi
Dew Point: 30°   Wind: 8mph
Humidity: 87%   Direction: 300°WNW
Pressure: 30.13"   Gusts: NA
Location:  48.6345°N, 95.1786°W
Report Text: KRRT 301253Z AUTO 30007KT 10SM OVC035 01/M01 A3013 RMK AO2
Loading
Personal Weather Stations






























Interactive Weather Map
Tropical Storm Tracking
New forecast layout! Learn more

10-Day Weather Forecast

Advertisements
Track Severe Weather on mobile